Terminal Aerodrome Forecast
Issued by NWS Pocatello, ID

Home | Current Version | Previous Version | Text Only | Print | Product List | Glossary On
Versions: 1 2 3 4 5 6 7 8 9 10 11 12 13
000
FTUS45 KPIH 041720
TAFBYI
TAF
KBYI 041720Z 0418/0518 29008KT P6SM SCT120 SCT250
     FM050300 18008KT P6SM FEW120 BKN180
     FM050800 18010KT P6SM BKN120 OVC160
     FM051300 25015KT P6SM -SHRA SCT060 BKN090 OVC140=

USA.gov is the U.S. government's official web portal to all federal, state and local government web resources and services.